createdAt,value
2018-08-16T00:00:39.167Z,67.02
2018-08-16T00:01:39.164Z,66.62
2018-08-16T00:02:39.147Z,66.92
2018-08-16T00:03:39.156Z,66.52
2018-08-16T00:04:39.129Z,66.62
2018-08-16T00:05:39.121Z,66.82
2018-08-16T00:06:39.102Z,66.92
2018-08-16T00:07:39.089Z,67.02
2018-08-16T00:08:39.106Z,66.72
2018-08-16T00:09:39.079Z,66.82
2018-08-16T00:10:39.065Z,66.92
2018-08-16T00:11:39.050Z,66.55
2018-08-16T00:12:39.059Z,66.42
2018-08-16T00:13:39.032Z,67.02
2018-08-16T00:14:39.012Z,66.72
2018-08-16T00:15:39.006Z,66.82
2018-08-16T00:16:39.021Z,66.72
2018-08-16T00:17:38.989Z,66.72
2018-08-16T00:18:38.977Z,66.52
2018-08-16T00:19:38.958Z,66.72
2018-08-16T00:20:38.973Z,66.62
2018-08-16T00:21:38.938Z,66.82
2018-08-16T00:22:38.935Z,66.92
2018-08-16T00:23:38.918Z,66.82
2018-08-16T00:24:38.908Z,66.72
2018-08-16T00:25:38.927Z,66.92
2018-08-16T00:26:38.880Z,66.82
2018-08-16T00:27:38.876Z,66.52
2018-08-16T00:28:38.863Z,66.95
2018-08-16T00:29:38.852Z,66.62
2018-08-16T00:30:38.868Z,67.02
2018-08-16T00:31:38.830Z,66.82
2018-08-16T00:32:38.814Z,67.05
2018-08-16T00:33:38.809Z,66.82
2018-08-16T00:34:38.796Z,66.82
2018-08-16T00:35:39.076Z,66.45
2018-08-16T00:36:38.780Z,66.62
2018-08-16T00:37:38.770Z,66.75
2018-08-16T00:38:38.753Z,66.95
2018-08-16T00:39:38.748Z,66.35
2018-08-16T00:40:38.731Z,66.95
2018-08-16T00:41:38.748Z,66.95
2018-08-16T00:42:38.707Z,66.52
2018-08-16T00:43:38.967Z,66.72
2018-08-16T00:44:38.688Z,66.75
2018-08-16T00:45:38.674Z,67.05
2018-08-16T00:46:38.664Z,66.65
2018-08-16T00:47:38.658Z,66.95
2018-08-16T00:48:38.646Z,66.85
2018-08-16T00:49:38.659Z,66.82
2018-08-16T00:50:38.625Z,66.65
2018-08-16T00:51:38.611Z,66.45
2018-08-16T00:52:38.600Z,66.95
2018-08-16T00:53:38.591Z,67.25
2018-08-16T00:54:38.576Z,66.95
2018-08-16T00:55:38.588Z,66.35
2018-08-16T00:56:38.647Z,66.95
2018-08-16T00:57:38.545Z,66.85
2018-08-16T00:58:38.541Z,67.05
2018-08-16T00:59:38.530Z,67.05
2018-08-16T01:00:38.509Z,66.75
2018-08-16T01:01:38.496Z,66.95
2018-08-16T01:02:38.646Z,66.95
2018-08-16T01:03:38.483Z,66.75
2018-08-16T01:04:38.466Z,66.45
2018-08-16T01:05:38.475Z,67.05
2018-08-16T01:06:38.449Z,66.75
2018-08-16T01:07:38.436Z,67.15
2018-08-16T01:08:38.447Z,66.25
2018-08-16T01:09:38.415Z,67.15
2018-08-16T01:10:38.432Z,67.05
2018-08-16T01:11:38.397Z,66.95
2018-08-16T01:12:38.376Z,67.38
2018-08-16T01:13:38.371Z,67.05
2018-08-16T01:14:38.358Z,67.05
2018-08-16T01:15:38.369Z,67.35
2018-08-16T01:16:38.338Z,67.25
2018-08-16T01:17:38.329Z,67.15
2018-08-16T01:18:38.317Z,67.15
2018-08-16T01:19:38.309Z,67.38
2018-08-16T01:20:38.291Z,66.85
2018-08-16T01:21:38.323Z,67.25
2018-08-16T01:22:38.268Z,66.95
2018-08-16T01:23:38.267Z,66.48
2018-08-16T01:24:38.246Z,66.85
2018-08-16T01:25:38.241Z,66.95
2018-08-16T01:26:38.235Z,66.75
2018-08-16T01:27:38.239Z,66.75
2018-08-16T01:28:38.236Z,67.05
2018-08-16T01:29:38.201Z,66.85
2018-08-16T01:30:38.180Z,66.38
2018-08-16T01:31:38.176Z,66.85
2018-08-16T01:32:38.164Z,67.08
2018-08-16T01:33:38.156Z,67.08
2018-08-16T01:34:38.171Z,66.35
2018-08-16T01:35:38.198Z,66.85
2018-08-16T01:36:38.118Z,66.95
2018-08-16T01:37:38.107Z,66.65
2018-08-16T01:38:38.107Z,66.85
2018-08-16T01:39:38.149Z,66.75
2018-08-16T01:40:38.074Z,66.95
2018-08-16T01:41:38.069Z,66.48
2018-08-16T01:42:38.055Z,66.75
2018-08-16T01:43:38.049Z,66.85
2018-08-16T01:44:38.031Z,66.99
2018-08-16T01:45:38.058Z,66.38
2018-08-16T01:46:38.014Z,66.99
2018-08-16T01:47:38.039Z,67.18
2018-08-16T01:48:37.986Z,66.99
2018-08-16T01:49:37.985Z,66.65
2018-08-16T01:50:37.991Z,66.95
2018-08-16T01:51:37.953Z,66.48
2018-08-16T01:52:37.947Z,66.88
2018-08-16T01:53:37.944Z,66.35
2018-08-16T01:54:37.953Z,66.68
2018-08-16T01:55:37.912Z,66.48
2018-08-16T01:56:37.898Z,66.85
2018-08-16T01:57:37.891Z,66.65
2018-08-16T01:58:37.878Z,66.78
2018-08-16T01:59:37.898Z,66.88
2018-08-16T02:00:37.855Z,66.88
2018-08-16T02:01:37.842Z,66.88
2018-08-16T02:02:37.831Z,66.99
2018-08-16T02:03:37.831Z,66.95
2018-08-16T02:04:37.809Z,66.38
2018-08-16T02:05:37.840Z,66.99
2018-08-16T02:06:37.792Z,67.08
2018-08-16T02:07:37.777Z,66.78
2018-08-16T02:08:37.768Z,66.88
2018-08-16T02:09:37.758Z,66.38
2018-08-16T02:10:37.748Z,66.99
2018-08-16T02:11:37.762Z,66.78
2018-08-16T02:12:37.728Z,66.15
2018-08-16T02:13:37.714Z,66.35
2018-08-16T02:14:37.700Z,66.15
2018-08-16T02:15:37.692Z,66.65
2018-08-16T02:16:37.710Z,66.95
2018-08-16T02:17:37.676Z,66.85
2018-08-16T02:18:37.657Z,66.78
2018-08-16T02:19:37.649Z,66.99
2018-08-16T02:20:37.635Z,66.78
2018-08-16T02:21:37.628Z,67.08
2018-08-16T02:22:37.637Z,66.99
2018-08-16T02:23:37.606Z,67.58
2018-08-16T02:24:37.597Z,67.02
2018-08-16T02:25:37.590Z,66.99
2018-08-16T02:26:37.575Z,66.88
2018-08-16T02:27:37.565Z,66.68
2018-08-16T02:28:37.574Z,67.18
2018-08-16T02:29:37.542Z,66.48
2018-08-16T02:30:37.527Z,66.88
2018-08-16T02:31:37.526Z,66.28
2018-08-16T02:32:37.544Z,66.48
2018-08-16T02:33:37.550Z,66.99
2018-08-16T02:34:37.491Z,66.99
2018-08-16T02:35:37.482Z,66.88
2018-08-16T02:36:37.469Z,66.88
2018-08-16T02:37:37.451Z,66.99
2018-08-16T02:38:37.465Z,66.38
2018-08-16T02:39:37.430Z,66.78
2018-08-16T02:40:37.423Z,66.68
2018-08-16T02:41:37.411Z,66.68
2018-08-16T02:42:37.400Z,66.08
2018-08-16T02:43:37.414Z,66.88
2018-08-16T02:44:37.378Z,65.88
2018-08-16T02:45:37.371Z,66.48
2018-08-16T02:46:37.356Z,66.38
2018-08-16T02:47:37.342Z,66.78
2018-08-16T02:48:37.329Z,66.99
2018-08-16T02:49:37.352Z,66.78
2018-08-16T02:50:37.311Z,67.08
2018-08-16T02:51:37.297Z,66.88
2018-08-16T02:52:37.322Z,66.91
2018-08-16T02:53:37.279Z,66.88
2018-08-16T02:54:37.264Z,66.82
2018-08-16T02:55:37.257Z,66.58
2018-08-16T02:56:37.249Z,66.91
2018-08-16T02:57:37.256Z,66.99
2018-08-16T02:58:37.221Z,66.99
2018-08-16T02:59:37.216Z,66.61
2018-08-16T03:00:37.196Z,66.82
2018-08-16T03:01:37.191Z,66.82
2018-08-16T03:02:37.180Z,66.61
2018-08-16T03:03:37.199Z,66.61
2018-08-16T03:04:37.156Z,66.61
2018-08-16T03:05:37.151Z,66.82
2018-08-16T03:06:37.135Z,66.91
2018-08-16T03:07:37.122Z,66.52
2018-08-16T03:08:37.113Z,66.91
2018-08-16T03:09:37.129Z,66.52
2018-08-16T03:10:37.130Z,66.91
2018-08-16T03:11:37.079Z,66.91
2018-08-16T03:12:37.078Z,66.61
2018-08-16T03:13:37.056Z,66.82
2018-08-16T03:14:37.041Z,66.71
2018-08-16T03:15:37.030Z,67.02
2018-08-16T03:16:37.049Z,66.11
2018-08-16T03:17:37.014Z,66.11
2018-08-16T03:18:36.997Z,66.41
2018-08-16T03:19:37.001Z,67.02
2018-08-16T03:20:36.984Z,66.82
2018-08-16T03:21:36.965Z,66.31
2018-08-16T03:22:36.986Z,66.82
2018-08-16T03:23:36.952Z,66.52
2018-08-16T03:24:36.935Z,66.21
2018-08-16T03:25:36.932Z,66.41
2018-08-16T03:26:36.953Z,66.82
2018-08-16T03:27:36.921Z,65.81
2018-08-16T03:28:36.886Z,66.52
2018-08-16T03:29:36.887Z,66.31
2018-08-16T03:30:57.133Z,66.18
2018-08-16T03:31:36.856Z,66.38
2018-08-16T03:32:36.880Z,65.91
2018-08-16T03:33:36.838Z,65.91
2018-08-16T03:34:36.853Z,66.31
2018-08-16T03:35:36.819Z,66.41
2018-08-16T03:36:36.825Z,66.31
2018-08-16T03:37:36.793Z,65.81
2018-08-16T03:38:36.806Z,66.52
2018-08-16T03:39:36.780Z,66.11
2018-08-16T03:40:36.757Z,66.31
2018-08-16T03:41:36.771Z,65.81
2018-08-16T03:42:36.763Z,66.21
2018-08-16T03:43:36.734Z,66.01
2018-08-16T03:44:36.865Z,66.31
2018-08-16T03:45:36.708Z,66.24
2018-08-16T03:46:36.694Z,66.21
2018-08-16T03:47:36.959Z,66.41
2018-08-16T03:48:36.670Z,66.18
2018-08-16T03:49:36.659Z,66.31
2018-08-16T03:50:36.657Z,65.71
2018-08-16T03:51:36.635Z,66.11
2018-08-16T03:52:36.637Z,66.31
2018-08-16T03:53:36.657Z,66.11
2018-08-16T03:54:36.615Z,66.31
2018-08-16T03:55:36.598Z,66.11
2018-08-16T03:56:36.591Z,66.41
2018-08-16T03:57:36.585Z,66.21
2018-08-16T03:58:36.560Z,66.41
2018-08-16T03:59:36.587Z,66.11
2018-08-16T04:00:36.566Z,66.31
2018-08-16T04:01:36.530Z,65.91
2018-08-16T04:02:36.544Z,66.21
2018-08-16T04:03:36.510Z,66.21
2018-08-16T04:04:36.502Z,66.31
2018-08-16T04:05:36.511Z,66.01
2018-08-16T04:06:36.474Z,65.81
2018-08-16T04:07:36.495Z,66.21
2018-08-16T04:08:36.460Z,66.11
2018-08-16T04:09:36.446Z,65.71
2018-08-16T04:10:36.431Z,65.61
2018-08-16T04:11:36.419Z,65.91
2018-08-16T04:12:36.433Z,65.71
2018-08-16T04:13:36.404Z,65.78
2018-08-16T04:14:36.389Z,65.81
2018-08-16T04:15:36.415Z,65.81
2018-08-16T04:16:36.366Z,65.61
2018-08-16T04:17:36.391Z,65.71
2018-08-16T04:18:36.367Z,66.11
2018-08-16T04:19:36.338Z,65.71
2018-08-16T04:20:36.325Z,65.91
2018-08-16T04:21:36.327Z,65.81
2018-08-16T04:22:36.308Z,65.91
2018-08-16T04:23:36.336Z,65.71
2018-08-16T04:24:36.312Z,66.31
2018-08-16T04:25:36.317Z,66.21
2018-08-16T04:26:36.252Z,66.21
2018-08-16T04:27:36.255Z,66.82
2018-08-16T04:28:36.237Z,66.82
2018-08-16T04:29:36.224Z,67.05
2018-08-16T04:30:36.216Z,66.95
2018-08-16T04:31:36.225Z,67.35
2018-08-16T04:32:36.187Z,67.35
2018-08-16T04:33:36.214Z,67.05
2018-08-16T04:34:36.207Z,67.05
2018-08-16T04:35:36.255Z,66.95
2018-08-16T04:36:36.145Z,67.02
2018-08-16T04:37:36.140Z,66.01
2018-08-16T04:38:36.147Z,66.14
2018-08-16T04:39:36.141Z,65.91
2018-08-16T04:40:36.101Z,66.31
2018-08-16T04:41:36.109Z,66.52
2018-08-16T04:42:36.081Z,66.21
2018-08-16T04:43:36.073Z,65.81
2018-08-16T04:44:36.054Z,65.81
2018-08-16T04:45:36.072Z,65.91
2018-08-16T04:46:36.034Z,65.68
2018-08-16T04:47:36.028Z,66.61
2018-08-16T04:48:36.029Z,66.31
2018-08-16T04:49:36.009Z,66.52
2018-08-16T04:50:36.019Z,66.21
2018-08-16T04:51:35.982Z,66.11
2018-08-16T04:52:35.998Z,66.41
2018-08-16T04:53:35.959Z,66.31
2018-08-16T04:54:35.946Z,66.21
2018-08-16T04:55:35.940Z,66.11
2018-08-16T04:56:35.927Z,66.31
2018-08-16T04:57:35.937Z,66.31
2018-08-16T04:58:35.908Z,66.41
2018-08-16T04:59:35.893Z,66.82
2018-08-16T05:00:35.886Z,66.91
2018-08-16T05:01:35.877Z,66.41
2018-08-16T05:02:35.862Z,66.11
2018-08-16T05:03:35.875Z,66.21
2018-08-16T05:04:35.868Z,66.11
2018-08-16T05:05:35.832Z,66.82
2018-08-16T05:06:35.823Z,65.91
2018-08-16T05:07:35.808Z,66.41
2018-08-16T05:08:35.797Z,66.41
2018-08-16T05:09:35.805Z,66.38
2018-08-16T05:10:35.778Z,66.52
2018-08-16T05:11:35.759Z,66.71
2018-08-16T05:12:35.776Z,66.91
2018-08-16T05:13:35.754Z,66.82
2018-08-16T05:14:35.730Z,66.91
2018-08-16T05:15:35.718Z,66.82
2018-08-16T05:16:35.705Z,67.11
2018-08-16T05:17:35.698Z,67.22
2018-08-16T05:18:35.702Z,67.22
2018-08-16T05:19:35.713Z,66.41
2018-08-16T05:20:35.666Z,66.71
2018-08-16T05:21:35.664Z,67.22
2018-08-16T05:22:35.665Z,67.22
2018-08-16T05:23:35.655Z,67.32
2018-08-16T05:24:35.667Z,66.41
2018-08-16T05:25:35.612Z,67.02
2018-08-16T05:26:35.600Z,67.22
2018-08-16T05:27:35.588Z,67.02
2018-08-16T05:28:35.628Z,66.82
2018-08-16T05:29:35.565Z,67.32
2018-08-16T05:30:35.556Z,67.02
2018-08-16T05:31:35.572Z,67.42
2018-08-16T05:32:35.531Z,66.82
2018-08-16T05:33:35.546Z,67.38
2018-08-16T05:34:35.537Z,67.52
2018-08-16T05:35:35.504Z,67.42
2018-08-16T05:36:35.485Z,67.42
2018-08-16T05:37:35.510Z,67.11
2018-08-16T05:38:35.485Z,67.08
2018-08-16T05:39:35.455Z,66.78
2018-08-16T05:40:35.444Z,67.29
2018-08-16T05:41:35.436Z,66.68
2018-08-16T05:42:35.503Z,66.78
2018-08-16T05:43:35.505Z,67.08
2018-08-16T05:44:35.402Z,67.61
2018-08-16T05:45:35.396Z,67.08
2018-08-16T05:46:35.388Z,66.58
2018-08-16T05:47:35.403Z,67.42
2018-08-16T05:48:35.367Z,66.91
2018-08-16T05:49:35.347Z,66.88
2018-08-16T05:50:35.342Z,66.88
2018-08-16T05:51:35.324Z,66.58
2018-08-16T05:52:35.355Z,66.99
2018-08-16T05:53:35.307Z,66.68
2018-08-16T05:54:35.293Z,66.88
2018-08-16T05:55:35.286Z,66.88
2018-08-16T05:56:35.280Z,67.52
2018-08-16T05:57:35.301Z,67.38
2018-08-16T05:58:35.248Z,66.88
2018-08-16T05:59:35.248Z,66.78
2018-08-16T06:00:35.225Z,66.99
2018-08-16T06:01:35.217Z,67.29
2018-08-16T06:02:35.260Z,67.38
2018-08-16T06:03:35.194Z,67.58
2018-08-16T06:04:35.183Z,67.49
2018-08-16T06:05:35.178Z,67.49
2018-08-16T06:06:35.165Z,67.29
2018-08-16T06:07:35.302Z,67.49
2018-08-16T06:08:35.152Z,67.29
2018-08-16T06:09:35.129Z,66.88
2018-08-16T06:10:35.124Z,67.58
2018-08-16T06:11:35.110Z,66.58
2018-08-16T06:12:35.128Z,66.35
2018-08-16T06:13:35.110Z,66.12
2018-08-16T06:14:35.080Z,66.22
2018-08-16T06:15:35.164Z,65.52
2018-08-16T06:16:35.066Z,66.02
2018-08-16T06:17:35.047Z,65.52
2018-08-16T06:18:35.134Z,65.72
2018-08-16T06:19:35.047Z,65.62
2018-08-16T06:20:35.133Z,66.15
2018-08-16T06:21:35.015Z,65.72
2018-08-16T06:22:34.998Z,64.92
2018-08-16T06:23:34.975Z,65.52
2018-08-16T06:24:34.973Z,65.31
2018-08-16T06:25:34.981Z,65.52
2018-08-16T06:26:34.946Z,65.55
2018-08-16T06:27:34.938Z,65.72
2018-08-16T06:28:34.927Z,65.82
2018-08-16T06:29:34.947Z,65.72
2018-08-16T06:30:34.905Z,65.72
2018-08-16T06:31:34.929Z,65.72
2018-08-16T06:32:34.893Z,65.42
2018-08-16T06:33:34.870Z,66.02
2018-08-16T06:34:34.867Z,65.92
2018-08-16T06:35:34.868Z,65.55
2018-08-16T06:36:34.836Z,65.82
2018-08-16T06:37:34.823Z,66.22
2018-08-16T06:38:34.815Z,65.52
2018-08-16T06:39:34.805Z,65.62
2018-08-16T06:40:35.092Z,66.02
2018-08-16T06:41:34.788Z,65.42
2018-08-16T06:42:34.778Z,65.92
2018-08-16T06:43:34.765Z,65.62
2018-08-16T06:44:34.744Z,66.02
2018-08-16T06:45:34.737Z,65.52
2018-08-16T06:46:35.026Z,65.82
2018-08-16T06:47:34.717Z,65.62
2018-08-16T06:48:34.704Z,65.72
2018-08-16T06:49:34.696Z,65.92
2018-08-16T06:50:34.683Z,65.52
2018-08-16T06:51:34.686Z,65.72
2018-08-16T06:52:34.874Z,65.31
2018-08-16T06:53:34.692Z,65.42
2018-08-16T06:54:34.639Z,65.72
2018-08-16T06:55:34.627Z,65.72
2018-08-16T06:56:34.620Z,65.62
2018-08-16T06:57:34.607Z,65.82
2018-08-16T06:58:34.629Z,65.82
2018-08-16T06:59:34.692Z,66.22
2018-08-16T07:00:34.571Z,65.82
2018-08-16T07:01:34.562Z,65.62
2018-08-16T07:02:34.557Z,65.52
2018-08-16T07:03:34.549Z,65.78
2018-08-16T07:04:34.574Z,64.62
2018-08-16T07:05:34.519Z,65.39
2018-08-16T07:06:34.527Z,64.59
2018-08-16T07:07:34.530Z,64.69
2018-08-16T07:08:34.487Z,64.28
2018-08-16T07:09:34.523Z,64.18
2018-08-16T07:10:34.465Z,64.09
2018-08-16T07:11:34.458Z,63.98
2018-08-16T07:12:34.511Z,63.98
2018-08-16T07:13:34.435Z,63.98
2018-08-16T07:14:34.746Z,64.18
2018-08-16T07:15:34.417Z,63.89
2018-08-16T07:16:34.405Z,64.39
2018-08-16T07:17:34.387Z,63.98
2018-08-16T07:18:34.390Z,64.48
2018-08-16T07:19:34.370Z,64.39
2018-08-16T07:20:34.377Z,63.98
2018-08-16T07:21:34.353Z,64.28
2018-08-16T07:22:34.334Z,64.18
2018-08-16T07:23:34.321Z,64.15
2018-08-16T07:24:34.423Z,64.18
2018-08-16T07:25:34.338Z,64.09
2018-08-16T07:26:34.294Z,63.75
2018-08-16T07:27:34.285Z,64.15
2018-08-16T07:28:34.276Z,64.25
2018-08-16T07:29:34.269Z,63.95
2018-08-16T07:30:34.249Z,63.95
2018-08-16T07:31:34.541Z,63.85
2018-08-16T07:32:34.228Z,64.09
2018-08-16T07:33:34.223Z,64.15
2018-08-16T07:34:34.208Z,63.65
2018-08-16T07:35:34.196Z,63.75
2018-08-16T07:36:34.186Z,63.65
2018-08-16T07:37:34.202Z,63.65
2018-08-16T07:38:34.153Z,63.56
2018-08-16T07:39:34.146Z,63.75
2018-08-16T07:40:34.136Z,63.95
2018-08-16T07:41:34.123Z,63.95
2018-08-16T07:42:34.120Z,63.75
2018-08-16T07:43:34.269Z,63.65
2018-08-16T07:44:34.093Z,63.45
2018-08-16T07:45:34.151Z,63.15
2018-08-16T07:46:34.175Z,63.56
2018-08-16T07:47:34.066Z,63.72
2018-08-16T07:48:34.054Z,63.15
2018-08-16T07:49:34.097Z,63.12
2018-08-16T07:50:34.042Z,63.32
2018-08-16T07:51:34.278Z,63.22
2018-08-16T07:52:34.025Z,63.12
2018-08-16T07:53:33.991Z,63.12
2018-08-16T07:54:33.978Z,63.32
2018-08-16T07:55:34.000Z,63.53
2018-08-16T07:56:33.955Z,63.42
2018-08-16T07:57:33.955Z,63.53
2018-08-16T07:58:34.012Z,63.62
2018-08-16T07:59:33.945Z,63.22
2018-08-16T08:00:33.928Z,63.22
2018-08-16T08:01:33.907Z,63.12
2018-08-16T08:02:33.901Z,62.82
2018-08-16T08:03:33.904Z,62.92
2018-08-16T08:04:33.883Z,62.92
2018-08-16T08:05:33.861Z,63.02
2018-08-16T08:06:33.897Z,63.02
2018-08-16T08:07:33.837Z,62.82
2018-08-16T08:08:33.828Z,62.72
2018-08-16T08:09:33.940Z,62.72
2018-08-16T08:10:33.806Z,62.82
2018-08-16T08:11:33.823Z,62.82
2018-08-16T08:12:33.783Z,62.32
2018-08-16T08:13:33.774Z,62.42
2018-08-16T08:14:33.770Z,62.32
2018-08-16T08:15:33.862Z,62.39
2018-08-16T08:16:33.761Z,62.52
2018-08-16T08:17:33.726Z,62.32
2018-08-16T08:18:33.721Z,62.12
2018-08-16T08:19:33.728Z,62.22
2018-08-16T08:20:33.700Z,61.99
2018-08-16T08:21:33.715Z,62.22
2018-08-16T08:22:33.676Z,62.32
2018-08-16T08:23:33.678Z,61.89
2018-08-16T08:24:33.672Z,62.32
2018-08-16T08:25:33.713Z,61.92
2018-08-16T08:26:33.657Z,62.19
2018-08-16T08:27:33.614Z,61.89
2018-08-16T08:28:33.606Z,61.99
2018-08-16T08:29:33.598Z,62.19
2018-08-16T08:30:33.596Z,61.99
2018-08-16T08:31:33.609Z,62.19
2018-08-16T08:32:33.565Z,61.99
2018-08-16T08:33:33.562Z,61.89
2018-08-16T08:34:33.551Z,62.19
2018-08-16T08:35:33.547Z,62.32
2018-08-16T08:36:33.517Z,62.39
2018-08-16T08:37:33.538Z,62.39
2018-08-16T08:38:33.567Z,62.39
2018-08-16T08:39:33.489Z,62.39
2018-08-16T08:40:33.473Z,62.39
2018-08-16T08:41:33.465Z,62.49
2018-08-16T08:42:33.478Z,62.39
2018-08-16T08:43:33.464Z,62.29
2018-08-16T08:44:33.437Z,62.49
2018-08-16T08:45:33.425Z,62.29
2018-08-16T08:46:33.458Z,62.49
2018-08-16T08:47:33.425Z,62.59
2018-08-16T08:48:33.402Z,62.49
2018-08-16T08:49:33.382Z,62.39
2018-08-16T08:50:33.368Z,62.09
2018-08-16T08:51:33.357Z,62.19
2018-08-16T08:52:33.359Z,62.39
2018-08-16T08:53:33.368Z,62.29
2018-08-16T08:54:33.325Z,62.39
2018-08-16T08:55:33.318Z,62.29
2018-08-16T08:56:33.318Z,62.49
2018-08-16T08:57:33.287Z,62.19
2018-08-16T08:58:33.307Z,62.39
2018-08-16T08:59:33.265Z,62.29
2018-08-16T09:00:33.254Z,62.39
2018-08-16T09:01:33.240Z,61.89
2018-08-16T09:02:33.235Z,62.19
2018-08-16T09:03:33.258Z,62.39
2018-08-16T09:04:33.223Z,62.09
2018-08-16T09:05:33.253Z,62.19
2018-08-16T09:06:33.196Z,62.19
2018-08-16T09:07:33.184Z,62.19
2018-08-16T09:08:33.212Z,61.99
2018-08-16T09:09:33.160Z,62.09
2018-08-16T09:10:33.154Z,62.19
2018-08-16T09:11:33.137Z,62.19
2018-08-16T09:12:33.130Z,62.49
2018-08-16T09:13:33.308Z,62.39
2018-08-16T09:14:33.111Z,62.09
2018-08-16T09:15:33.095Z,61.99
2018-08-16T09:16:33.086Z,62.29
2018-08-16T09:17:33.075Z,62.09
2018-08-16T09:18:33.056Z,61.99
2018-08-16T09:19:33.087Z,61.89
2018-08-16T09:20:33.032Z,61.89
2018-08-16T09:21:33.027Z,61.59
2018-08-16T09:22:33.101Z,61.99
2018-08-16T09:23:33.014Z,61.89
2018-08-16T09:24:33.007Z,61.59
2018-08-16T09:25:32.984Z,61.99
2018-08-16T09:26:32.992Z,61.59
2018-08-16T09:27:32.967Z,62.29
2018-08-16T09:28:33.101Z,62.19
2018-08-16T09:29:32.988Z,61.59
2018-08-16T09:30:32.925Z,62.19
2018-08-16T09:31:32.974Z,62.29
2018-08-16T09:32:32.921Z,61.59
2018-08-16T09:33:32.897Z,62.29
2018-08-16T09:34:32.917Z,62.29
2018-08-16T09:35:32.877Z,62.29
2018-08-16T09:36:32.867Z,61.69
2018-08-16T09:37:32.879Z,62.19
2018-08-16T09:38:32.836Z,62.29
2018-08-16T09:39:32.970Z,62.29
2018-08-16T09:40:32.828Z,62.29
2018-08-16T09:41:32.806Z,61.89
2018-08-16T09:42:32.825Z,61.59
2018-08-16T09:43:33.059Z,61.89
2018-08-16T09:44:32.785Z,62.09
2018-08-16T09:45:32.816Z,62.09
2018-08-16T09:46:32.760Z,61.89
2018-08-16T09:47:32.737Z,62.19
2018-08-16T09:48:32.736Z,62.39
2018-08-16T09:49:32.746Z,62.09
2018-08-16T09:50:32.707Z,62.59
2018-08-16T09:51:32.763Z,62.19
2018-08-16T09:52:32.686Z,61.89
2018-08-16T09:53:32.698Z,62.19
2018-08-16T09:54:32.679Z,61.89
2018-08-16T09:55:32.927Z,62.19
2018-08-16T09:56:32.638Z,62.70
2018-08-16T09:57:32.632Z,62.19
2018-08-16T09:58:32.617Z,62.49
2018-08-16T09:59:32.607Z,62.19
2018-08-16T10:00:32.603Z,62.39
2018-08-16T10:01:32.848Z,61.89
2018-08-16T10:02:32.573Z,61.89
2018-08-16T10:03:32.568Z,61.79
2018-08-16T10:04:32.566Z,61.99
2018-08-16T10:05:32.539Z,61.89
2018-08-16T10:06:32.536Z,61.89
2018-08-16T10:07:32.549Z,62.29
2018-08-16T10:08:32.506Z,61.59
2018-08-16T10:09:32.536Z,62.37
2018-08-16T10:10:32.489Z,61.69
2018-08-16T10:11:32.476Z,61.79
2018-08-16T10:12:32.465Z,61.87
2018-08-16T10:13:32.479Z,61.89
2018-08-16T10:14:32.445Z,61.57
2018-08-16T10:15:32.460Z,61.79
2018-08-16T10:16:32.419Z,61.96
2018-08-16T10:17:32.416Z,61.87
2018-08-16T10:18:32.403Z,61.69
2018-08-16T10:19:32.390Z,61.89
2018-08-16T10:20:32.406Z,61.76
2018-08-16T10:21:32.370Z,61.99
2018-08-16T10:22:32.357Z,61.89
2018-08-16T10:23:32.343Z,61.99
2018-08-16T10:24:32.332Z,61.99
2018-08-16T10:25:32.321Z,61.57
2018-08-16T10:26:32.332Z,61.59
2018-08-16T10:27:32.587Z,61.96
2018-08-16T10:28:32.290Z,61.59
2018-08-16T10:29:32.280Z,61.76
2018-08-16T10:30:32.267Z,61.66
2018-08-16T10:31:32.259Z,61.66
2018-08-16T10:32:32.263Z,61.57
2018-08-16T10:33:32.260Z,61.96
2018-08-16T10:34:32.230Z,61.57
2018-08-16T10:35:32.214Z,61.57
2018-08-16T10:36:32.203Z,61.46
2018-08-16T10:37:32.192Z,61.57
2018-08-16T10:38:32.209Z,61.36
2018-08-16T10:39:32.180Z,61.66
2018-08-16T10:40:32.159Z,61.57
2018-08-16T10:41:32.151Z,61.57
2018-08-16T10:42:32.416Z,61.66
2018-08-16T10:43:32.136Z,61.36
2018-08-16T10:44:32.131Z,61.57
2018-08-16T10:45:32.113Z,61.07
2018-08-16T10:46:32.097Z,61.26
2018-08-16T10:47:32.085Z,61.76
2018-08-16T10:48:32.096Z,61.36
2018-08-16T10:49:32.064Z,61.26
2018-08-16T10:50:32.052Z,61.26
2018-08-16T10:51:32.065Z,61.26
2018-08-16T10:52:32.046Z,61.57
2018-08-16T10:53:32.022Z,61.66
2018-08-16T10:54:32.081Z,61.26
2018-08-16T10:55:31.996Z,61.26
2018-08-16T10:56:31.988Z,60.96
2018-08-16T10:57:31.974Z,61.36
2018-08-16T10:58:31.960Z,61.66
2018-08-16T10:59:31.956Z,61.46
2018-08-16T11:00:31.974Z,61.36
2018-08-16T11:01:31.925Z,61.26
2018-08-16T11:02:31.928Z,61.26
2018-08-16T11:03:31.911Z,61.26
2018-08-16T11:04:32.067Z,61.26
2018-08-16T11:05:31.888Z,61.26
2018-08-16T11:06:31.880Z,61.26
2018-08-16T11:07:31.895Z,61.26
2018-08-16T11:08:31.863Z,61.46
2018-08-16T11:09:31.850Z,61.46
2018-08-16T11:10:31.856Z,61.57
2018-08-16T11:11:31.824Z,61.36
2018-08-16T11:12:31.819Z,60.77
2018-08-16T11:13:31.803Z,61.57
2018-08-16T11:14:31.792Z,61.07
2018-08-16T11:15:31.786Z,61.33
2018-08-16T11:16:32.062Z,61.33
2018-08-16T11:17:31.760Z,61.07
2018-08-16T11:18:31.740Z,61.46
2018-08-16T11:19:31.734Z,60.53
2018-08-16T11:20:31.717Z,60.74
2018-08-16T11:21:31.720Z,61.16
2018-08-16T11:22:31.728Z,60.53
2018-08-16T11:23:31.691Z,60.96
2018-08-16T11:24:31.710Z,60.77
2018-08-16T11:25:31.666Z,61.07
2018-08-16T11:26:31.706Z,60.96
2018-08-16T11:27:31.645Z,61.36
2018-08-16T11:28:31.630Z,61.16
2018-08-16T11:29:31.673Z,61.07
2018-08-16T11:30:31.649Z,60.93
2018-08-16T11:31:31.598Z,61.07
2018-08-16T11:32:31.588Z,61.07
2018-08-16T11:33:31.583Z,60.86
2018-08-16T11:34:31.598Z,60.66
2018-08-16T11:35:31.551Z,60.46
2018-08-16T11:36:31.546Z,60.77
2018-08-16T11:37:31.537Z,60.83
2018-08-16T11:38:31.519Z,60.63
2018-08-16T11:39:31.517Z,60.57
2018-08-16T11:40:31.531Z,60.66
2018-08-16T11:41:31.488Z,60.66
2018-08-16T11:42:31.475Z,61.46
2018-08-16T11:43:31.464Z,61.33
2018-08-16T11:44:31.456Z,61.26
2018-08-16T11:45:31.477Z,60.46
2018-08-16T11:46:31.626Z,60.77
2018-08-16T11:47:31.435Z,60.57
2018-08-16T11:48:31.416Z,60.93
2018-08-16T11:49:31.411Z,60.74
2018-08-16T11:50:31.385Z,60.77
2018-08-16T11:51:31.390Z,60.77
2018-08-16T11:52:31.396Z,60.63
2018-08-16T11:53:31.354Z,60.46
2018-08-16T11:54:31.349Z,60.16
2018-08-16T11:55:31.336Z,60.44
2018-08-16T11:56:31.356Z,60.33
2018-08-16T11:57:31.329Z,60.27
2018-08-16T11:58:31.351Z,60.36
2018-08-16T11:59:31.297Z,60.86
2018-08-16T12:00:31.281Z,60.46
2018-08-16T12:01:31.272Z,60.24
2018-08-16T12:02:31.284Z,60.44
2018-08-16T12:03:31.257Z,60.83
2018-08-16T12:04:31.247Z,60.27
2018-08-16T12:05:31.285Z,60.16
2018-08-16T12:06:31.215Z,60.24
2018-08-16T12:07:31.253Z,60.77
2018-08-16T12:08:31.224Z,60.77
2018-08-16T12:09:31.190Z,60.27
2018-08-16T12:10:31.206Z,60.24
2018-08-16T12:11:31.159Z,60.46
2018-08-16T12:12:31.147Z,60.27
2018-08-16T12:13:31.140Z,60.24
2018-08-16T12:14:31.134Z,60.24
2018-08-16T12:15:31.242Z,60.24
2018-08-16T12:16:31.128Z,60.33
2018-08-16T12:17:31.098Z,60.33
2018-08-16T12:18:31.080Z,60.46
2018-08-16T12:19:31.340Z,60.36
2018-08-16T12:20:31.059Z,60.46
2018-08-16T12:21:31.058Z,60.27
2018-08-16T12:22:31.036Z,60.16
2018-08-16T12:23:31.026Z,60.16
2018-08-16T12:24:31.023Z,60.46
2018-08-16T12:25:31.032Z,60.24
2018-08-16T12:26:30.996Z,60.33
2018-08-16T12:27:30.993Z,60.24
2018-08-16T12:28:30.989Z,60.33
2018-08-16T12:29:30.966Z,60.14
2018-08-16T12:30:30.957Z,60.33
2018-08-16T12:31:30.973Z,60.27
2018-08-16T12:32:30.929Z,60.33
2018-08-16T12:33:31.065Z,60.16
2018-08-16T12:34:30.904Z,60.46
2018-08-16T12:35:30.896Z,60.53
2018-08-16T12:36:30.882Z,60.14
2018-08-16T12:37:30.879Z,60.36
2018-08-16T12:38:30.871Z,60.53
2018-08-16T12:39:30.879Z,60.46
2018-08-16T12:40:30.849Z,60.16
2018-08-16T12:41:30.827Z,60.16
2018-08-16T12:42:30.824Z,60.16
2018-08-16T12:43:30.831Z,60.16
2018-08-16T12:44:30.792Z,60.16
2018-08-16T12:45:30.786Z,60.27
2018-08-16T12:46:30.818Z,60.36
2018-08-16T12:47:30.768Z,60.16
2018-08-16T12:48:30.751Z,60.27
2018-08-16T12:49:30.752Z,60.27
2018-08-16T12:50:30.758Z,60.77
2018-08-16T12:51:30.774Z,60.66
2018-08-16T12:52:30.714Z,60.46